sensor_id;sensor_type;location;lat;lon;timestamp;temperature;humidity
17827;DHT22;9038;48.208;16.308;2024-01-30T00:00:52;3.70;99.90
17827;DHT22;9038;48.208;16.308;2024-01-30T00:02:54;3.70;99.90
17827;DHT22;9038;48.208;16.308;2024-01-30T00:04:55;3.70;99.90
17827;DHT22;9038;48.208;16.308;2024-01-30T00:06:57;3.80;99.90
17827;DHT22;9038;48.208;16.308;2024-01-30T00:08:59;3.70;99.90
17827;DHT22;9038;48.208;16.308;2024-01-30T00:11:02;3.70;99.90
17827;DHT22;9038;48.208;16.308;2024-01-30T00:13:04;3.70;99.90
17827;DHT22;9038;48.208;16.308;2024-01-30T00:15:06;3.70;99.90
17827;DHT22;9038;48.208;16.308;2024-01-30T00:17:10;3.70;99.90
17827;DHT22;9038;48.208;16.308;2024-01-30T00:19:12;3.70;99.90
17827;DHT22;9038;48.208;16.308;2024-01-30T00:21:14;3.70;99.90
17827;DHT22;9038;48.208;16.308;2024-01-30T00:23:14;3.70;99.90
17827;DHT22;9038;48.208;16.308;2024-01-30T00:25:16;3.70;99.90
17827;DHT22;9038;48.208;16.308;2024-01-30T00:27:18;3.70;99.90
17827;DHT22;9038;48.208;16.308;2024-01-30T00:29:20;3.70;99.90
17827;DHT22;9038;48.208;16.308;2024-01-30T00:31:23;3.80;99.90
17827;DHT22;9038;48.208;16.308;2024-01-30T00:33:25;3.70;99.90
17827;DHT22;9038;48.208;16.308;2024-01-30T00:35:27;3.70;99.90
17827;DHT22;9038;48.208;16.308;2024-01-30T00:37:29;3.70;99.90
17827;DHT22;9038;48.208;16.308;2024-01-30T00:39:32;3.70;99.90
17827;DHT22;9038;48.208;16.308;2024-01-30T00:41:34;3.60;99.90
17827;DHT22;9038;48.208;16.308;2024-01-30T00:43:37;3.70;99.90
17827;DHT22;9038;48.208;16.308;2024-01-30T00:45:39;3.70;99.90
17827;DHT22;9038;48.208;16.308;2024-01-30T00:47:40;3.70;99.90
17827;DHT22;9038;48.208;16.308;2024-01-30T00:49:42;3.70;99.90
17827;DHT22;9038;48.208;16.308;2024-01-30T00:51:44;3.70;99.90
17827;DHT22;9038;48.208;16.308;2024-01-30T00:53:46;3.70;99.90
17827;DHT22;9038;48.208;16.308;2024-01-30T00:55:47;3.60;99.90
17827;DHT22;9038;48.208;16.308;2024-01-30T00:57:49;3.60;99.90
17827;DHT22;9038;48.208;16.308;2024-01-30T00:59:52;3.70;99.90
17827;DHT22;9038;48.208;16.308;2024-01-30T01:01:54;3.60;99.90
17827;DHT22;9038;48.208;16.308;2024-01-30T01:03:56;3.60;99.90
17827;DHT22;9038;48.208;16.308;2024-01-30T01:05:58;3.60;99.90
17827;DHT22;9038;48.208;16.308;2024-01-30T01:08:00;3.60;99.90
17827;DHT22;9038;48.208;16.308;2024-01-30T01:10:02;3.60;99.90
17827;DHT22;9038;48.208;16.308;2024-01-30T01:12:05;3.50;99.90
17827;DHT22;9038;48.208;16.308;2024-01-30T01:14:07;3.50;99.90
17827;DHT22;9038;48.208;16.308;2024-01-30T01:16:10;3.50;99.90
17827;DHT22;9038;48.208;16.308;2024-01-30T01:18:12;3.50;99.90
17827;DHT22;9038;48.208;16.308;2024-01-30T01:20:14;3.50;99.90
17827;DHT22;9038;48.208;16.308;2024-01-30T01:22:16;3.40;99.90
17827;DHT22;9038;48.208;16.308;2024-01-30T01:24:19;3.40;99.90
17827;DHT22;9038;48.208;16.308;2024-01-30T01:26:20;3.40;99.90
17827;DHT22;9038;48.208;16.308;2024-01-30T01:28:22;3.40;99.90
17827;DHT22;9038;48.208;16.308;2024-01-30T01:30:23;3.40;99.90
17827;DHT22;9038;48.208;16.308;2024-01-30T01:32:27;3.40;99.90
17827;DHT22;9038;48.208;16.308;2024-01-30T01:34:29;3.40;99.90
17827;DHT22;9038;48.208;16.308;2024-01-30T01:36:31;3.30;99.90
17827;DHT22;9038;48.208;16.308;2024-01-30T01:38:33;3.30;99.90
17827;DHT22;9038;48.208;16.308;2024-01-30T01:40:34;3.30;99.90
17827;DHT22;9038;48.208;16.308;2024-01-30T01:42:36;3.30;99.90
17827;DHT22;9038;48.208;16.308;2024-01-30T01:44:38;3.30;99.90
17827;DHT22;9038;48.208;16.308;2024-01-30T01:46:40;3.30;99.90
17827;DHT22;9038;48.208;16.308;2024-01-30T01:48:44;3.20;99.90
17827;DHT22;9038;48.208;16.308;2024-01-30T01:50:45;3.20;99.90
17827;DHT22;9038;48.208;16.308;2024-01-30T01:52:47;3.20;99.90
17827;DHT22;9038;48.208;16.308;2024-01-30T01:54:49;3.20;99.90
17827;DHT22;9038;48.208;16.308;2024-01-30T01:56:51;3.20;99.90
17827;DHT22;9038;48.208;16.308;2024-01-30T01:58:54;3.20;99.90
17827;DHT22;9038;48.208;16.308;2024-01-30T02:00:57;3.20;99.90
17827;DHT22;9038;48.208;16.308;2024-01-30T02:03:00;3.20;99.90
17827;DHT22;9038;48.208;16.308;2024-01-30T02:05:04;3.20;99.90
17827;DHT22;9038;48.208;16.308;2024-01-30T02:07:06;3.10;99.90
17827;DHT22;9038;48.208;16.308;2024-01-30T02:09:09;3.10;99.90
17827;DHT22;9038;48.208;16.308;2024-01-30T02:11:11;3.10;99.90
17827;DHT22;9038;48.208;16.308;2024-01-30T02:13:13;3.10;99.90
17827;DHT22;9038;48.208;16.308;2024-01-30T02:15:15;3.10;99.90
17827;DHT22;9038;48.208;16.308;2024-01-30T02:17:17;3.10;99.90
17827;DHT22;9038;48.208;16.308;2024-01-30T02:19:18;3.10;99.90
17827;DHT22;9038;48.208;16.308;2024-01-30T02:21:21;3.10;99.90
17827;DHT22;9038;48.208;16.308;2024-01-30T02:23:24;3.10;99.90
17827;DHT22;9038;48.208;16.308;2024-01-30T02:25:31;3.10;99.90
17827;DHT22;9038;48.208;16.308;2024-01-30T02:27:33;3.10;99.90
17827;DHT22;9038;48.208;16.308;2024-01-30T02:29:35;3.10;99.90
17827;DHT22;9038;48.208;16.308;2024-01-30T02:31:37;3.10;99.90
17827;DHT22;9038;48.208;16.308;2024-01-30T02:33:37;3.10;99.90
17827;DHT22;9038;48.208;16.308;2024-01-30T02:35:39;3.10;99.90
17827;DHT22;9038;48.208;16.308;2024-01-30T02:37:43;3.20;99.90
17827;DHT22;9038;48.208;16.308;2024-01-30T02:39:44;3.20;99.90
17827;DHT22;9038;48.208;16.308;2024-01-30T02:41:46;3.10;99.90
17827;DHT22;9038;48.208;16.308;2024-01-30T02:43:48;3.20;99.90
17827;DHT22;9038;48.208;16.308;2024-01-30T02:45:50;3.20;99.90
17827;DHT22;9038;48.208;16.308;2024-01-30T02:47:52;3.20;99.90
17827;DHT22;9038;48.208;16.308;2024-01-30T02:49:54;3.10;99.90
17827;DHT22;9038;48.208;16.308;2024-01-30T02:51:56;3.10;99.90
17827;DHT22;9038;48.208;16.308;2024-01-30T02:53:59;3.10;99.90
17827;DHT22;9038;48.208;16.308;2024-01-30T02:56:03;3.10;99.90
17827;DHT22;9038;48.208;16.308;2024-01-30T02:58:06;3.10;99.90
17827;DHT22;9038;48.208;16.308;2024-01-30T03:00:09;3.10;99.90
17827;DHT22;9038;48.208;16.308;2024-01-30T03:02:11;3.20;99.90
17827;DHT22;9038;48.208;16.308;2024-01-30T03:04:13;3.20;99.90
17827;DHT22;9038;48.208;16.308;2024-01-30T03:06:14;3.20;99.90
17827;DHT22;9038;48.208;16.308;2024-01-30T03:08:18;3.10;99.90
17827;DHT22;9038;48.208;16.308;2024-01-30T03:10:21;3.10;99.90
17827;DHT22;9038;48.208;16.308;2024-01-30T03:12:23;3.00;99.90
17827;DHT22;9038;48.208;16.308;2024-01-30T03:14:25;3.00;99.90
17827;DHT22;9038;48.208;16.308;2024-01-30T03:16:26;3.00;99.90
17827;DHT22;9038;48.208;16.308;2024-01-30T03:18:28;2.90;99.90
17827;DHT22;9038;48.208;16.308;2024-01-30T03:20:30;2.90;99.90
17827;DHT22;9038;48.208;16.308;2024-01-30T03:22:32;2.90;99.90
17827;DHT22;9038;48.208;16.308;2024-01-30T03:24:34;2.90;99.90
17827;DHT22;9038;48.208;16.308;2024-01-30T03:26:37;3.00;99.90
17827;DHT22;9038;48.208;16.308;2024-01-30T03:28:39;3.00;99.90
17827;DHT22;9038;48.208;16.308;2024-01-30T03:30:41;3.10;99.90
17827;DHT22;9038;48.208;16.308;2024-01-30T03:32:42;3.10;99.90
17827;DHT22;9038;48.208;16.308;2024-01-30T03:34:44;3.10;99.90
17827;DHT22;9038;48.208;16.308;2024-01-30T03:36:46;3.10;99.90
17827;DHT22;9038;48.208;16.308;2024-01-30T03:38:48;3.20;99.90
17827;DHT22;9038;48.208;16.308;2024-01-30T03:40:50;3.20;99.90
17827;DHT22;9038;48.208;16.308;2024-01-30T03:42:53;3.10;99.90
17827;DHT22;9038;48.208;16.308;2024-01-30T03:44:56;3.20;99.90
17827;DHT22;9038;48.208;16.308;2024-01-30T03:46:57;3.20;99.90
17827;DHT22;9038;48.208;16.308;2024-01-30T03:48:59;3.10;99.90
17827;DHT22;9038;48.208;16.308;2024-01-30T03:51:01;3.10;99.90
17827;DHT22;9038;48.208;16.308;2024-01-30T03:53:03;3.10;99.90
17827;DHT22;9038;48.208;16.308;2024-01-30T03:55:05;3.10;99.90
17827;DHT22;9038;48.208;16.308;2024-01-30T03:57:07;3.10;99.90
17827;DHT22;9038;48.208;16.308;2024-01-30T03:59:11;3.10;99.90
17827;DHT22;9038;48.208;16.308;2024-01-30T04:01:13;3.10;99.90
17827;DHT22;9038;48.208;16.308;2024-01-30T04:03:15;3.10;99.90
17827;DHT22;9038;48.208;16.308;2024-01-30T04:05:17;3.10;99.90
17827;DHT22;9038;48.208;16.308;2024-01-30T04:07:19;3.10;99.90
17827;DHT22;9038;48.208;16.308;2024-01-30T04:09:21;3.00;99.90
17827;DHT22;9038;48.208;16.308;2024-01-30T04:11:23;3.00;99.90
17827;DHT22;9038;48.208;16.308;2024-01-30T04:13:25;3.00;99.90
17827;DHT22;9038;48.208;16.308;2024-01-30T04:15:28;3.00;99.90
17827;DHT22;9038;48.208;16.308;2024-01-30T04:17:31;2.90;99.90
17827;DHT22;9038;48.208;16.308;2024-01-30T04:19:36;2.90;99.90
17827;DHT22;9038;48.208;16.308;2024-01-30T04:21:38;2.90;99.90
17827;DHT22;9038;48.208;16.308;2024-01-30T04:23:40;2.90;99.90
17827;DHT22;9038;48.208;16.308;2024-01-30T04:25:42;2.90;99.90
17827;DHT22;9038;48.208;16.308;2024-01-30T04:27:44;2.90;99.90
17827;DHT22;9038;48.208;16.308;2024-01-30T04:29:46;2.90;99.90
17827;DHT22;9038;48.208;16.308;2024-01-30T04:31:49;3.00;99.90
17827;DHT22;9038;48.208;16.308;2024-01-30T04:33:51;3.00;99.90
17827;DHT22;9038;48.208;16.308;2024-01-30T04:35:53;3.00;99.90
17827;DHT22;9038;48.208;16.308;2024-01-30T04:37:55;3.00;99.90
17827;DHT22;9038;48.208;16.308;2024-01-30T04:39:56;2.90;99.90
17827;DHT22;9038;48.208;16.308;2024-01-30T04:41:58;2.90;99.90
17827;DHT22;9038;48.208;16.308;2024-01-30T04:44:00;2.80;99.90
17827;DHT22;9038;48.208;16.308;2024-01-30T04:46:02;2.80;99.90
17827;DHT22;9038;48.208;16.308;2024-01-30T04:48:06;2.70;99.90
17827;DHT22;9038;48.208;16.308;2024-01-30T04:50:09;2.60;99.90
17827;DHT22;9038;48.208;16.308;2024-01-30T04:52:10;2.60;99.90
17827;DHT22;9038;48.208;16.308;2024-01-30T04:54:12;2.60;99.90
17827;DHT22;9038;48.208;16.308;2024-01-30T04:56:13;2.50;99.90
17827;DHT22;9038;48.208;16.308;2024-01-30T04:58:14;2.50;99.90
17827;DHT22;9038;48.208;16.308;2024-01-30T05:00:17;2.50;99.90
17827;DHT22;9038;48.208;16.308;2024-01-30T05:02:18;2.50;99.90
17827;DHT22;9038;48.208;16.308;2024-01-30T05:04:22;2.50;99.90
17827;DHT22;9038;48.208;16.308;2024-01-30T05:06:27;2.50;99.90
17827;DHT22;9038;48.208;16.308;2024-01-30T05:08:29;2.50;99.90
17827;DHT22;9038;48.208;16.308;2024-01-30T05:10:31;2.60;99.90
17827;DHT22;9038;48.208;16.308;2024-01-30T05:12:31;2.60;99.90
17827;DHT22;9038;48.208;16.308;2024-01-30T05:14:33;2.60;99.90
17827;DHT22;9038;48.208;16.308;2024-01-30T05:16:35;2.60;99.90
17827;DHT22;9038;48.208;16.308;2024-01-30T05:18:37;2.60;99.90
17827;DHT22;9038;48.208;16.308;2024-01-30T05:20:40;2.60;99.90
17827;DHT22;9038;48.208;16.308;2024-01-30T05:22:42;2.60;99.90
17827;DHT22;9038;48.208;16.308;2024-01-30T05:24:45;2.60;99.90
17827;DHT22;9038;48.208;16.308;2024-01-30T05:26:47;2.60;99.90
17827;DHT22;9038;48.208;16.308;2024-01-30T05:28:51;2.60;99.90
17827;DHT22;9038;48.208;16.308;2024-01-30T05:30:53;2.60;99.90
17827;DHT22;9038;48.208;16.308;2024-01-30T05:32:55;2.60;99.90
17827;DHT22;9038;48.208;16.308;2024-01-30T05:34:57;2.60;99.90
17827;DHT22;9038;48.208;16.308;2024-01-30T05:36:59;2.60;99.90
17827;DHT22;9038;48.208;16.308;2024-01-30T05:39:01;2.60;99.90
17827;DHT22;9038;48.208;16.308;2024-01-30T05:41:03;2.50;99.90
17827;DHT22;9038;48.208;16.308;2024-01-30T05:43:05;2.50;99.90
17827;DHT22;9038;48.208;16.308;2024-01-30T05:45:08;2.50;99.90
17827;DHT22;9038;48.208;16.308;2024-01-30T05:47:10;2.50;99.90
17827;DHT22;9038;48.208;16.308;2024-01-30T05:49:12;2.60;99.90
17827;DHT22;9038;48.208;16.308;2024-01-30T05:51:14;2.50;99.90
17827;DHT22;9038;48.208;16.308;2024-01-30T05:53:16;2.50;99.90
17827;DHT22;9038;48.208;16.308;2024-01-30T05:55:18;2.50;99.90
17827;DHT22;9038;48.208;16.308;2024-01-30T05:57:20;2.50;99.90
17827;DHT22;9038;48.208;16.308;2024-01-30T05:59:22;2.50;99.90
17827;DHT22;9038;48.208;16.308;2024-01-30T06:01:23;2.50;99.90
17827;DHT22;9038;48.208;16.308;2024-01-30T06:03:25;2.60;99.90
17827;DHT22;9038;48.208;16.308;2024-01-30T06:05:27;2.50;99.90
17827;DHT22;9038;48.208;16.308;2024-01-30T06:07:29;2.60;99.90
17827;DHT22;9038;48.208;16.308;2024-01-30T06:09:32;2.50;99.90
17827;DHT22;9038;48.208;16.308;2024-01-30T06:11:34;2.50;99.90
17827;DHT22;9038;48.208;16.308;2024-01-30T06:13:36;2.50;99.90
17827;DHT22;9038;48.208;16.308;2024-01-30T06:15:37;2.50;99.90
17827;DHT22;9038;48.208;16.308;2024-01-30T06:17:39;2.50;99.90
17827;DHT22;9038;48.208;16.308;2024-01-30T06:19:41;2.50;99.90
17827;DHT22;9038;48.208;16.308;2024-01-30T06:21:43;2.50;99.90
17827;DHT22;9038;48.208;16.308;2024-01-30T06:23:45;2.50;99.90
17827;DHT22;9038;48.208;16.308;2024-01-30T06:25:48;2.50;99.90
17827;DHT22;9038;48.208;16.308;2024-01-30T06:27:50;2.60;99.90
17827;DHT22;9038;48.208;16.308;2024-01-30T06:29:52;2.60;99.90
17827;DHT22;9038;48.208;16.308;2024-01-30T06:31:53;2.60;99.90
17827;DHT22;9038;48.208;16.308;2024-01-30T06:33:55;2.70;99.90
17827;DHT22;9038;48.208;16.308;2024-01-30T06:35:57;2.70;99.90
17827;DHT22;9038;48.208;16.308;2024-01-30T06:37:59;2.70;99.90
17827;DHT22;9038;48.208;16.308;2024-01-30T06:40:01;2.70;99.90
17827;DHT22;9038;48.208;16.308;2024-01-30T06:42:04;2.70;99.90
17827;DHT22;9038;48.208;16.308;2024-01-30T06:44:06;2.80;99.90
17827;DHT22;9038;48.208;16.308;2024-01-30T06:46:09;2.80;99.90
17827;DHT22;9038;48.208;16.308;2024-01-30T06:48:10;2.80;99.90
17827;DHT22;9038;48.208;16.308;2024-01-30T06:50:12;2.90;99.90
17827;DHT22;9038;48.208;16.308;2024-01-30T06:52:14;2.90;99.90
17827;DHT22;9038;48.208;16.308;2024-01-30T06:54:16;2.90;99.90
17827;DHT22;9038;48.208;16.308;2024-01-30T06:56:18;2.90;99.90
17827;DHT22;9038;48.208;16.308;2024-01-30T06:58:22;3.00;99.90
17827;DHT22;9038;48.208;16.308;2024-01-30T07:00:24;3.00;99.90
17827;DHT22;9038;48.208;16.308;2024-01-30T07:02:25;3.10;99.90
17827;DHT22;9038;48.208;16.308;2024-01-30T07:04:27;3.10;99.90
17827;DHT22;9038;48.208;16.308;2024-01-30T07:06:28;3.20;99.90
17827;DHT22;9038;48.208;16.308;2024-01-30T07:08:30;3.50;99.90
17827;DHT22;9038;48.208;16.308;2024-01-30T07:10:32;3.80;99.90
17827;DHT22;9038;48.208;16.308;2024-01-30T07:12:34;4.30;99.90
17827;DHT22;9038;48.208;16.308;2024-01-30T07:14:37;4.70;99.90
17827;DHT22;9038;48.208;16.308;2024-01-30T07:16:39;5.20;99.90
17827;DHT22;9038;48.208;16.308;2024-01-30T07:18:41;5.50;99.90
17827;DHT22;9038;48.208;16.308;2024-01-30T07:20:43;6.00;99.90
17827;DHT22;9038;48.208;16.308;2024-01-30T07:22:46;6.50;99.90
17827;DHT22;9038;48.208;16.308;2024-01-30T07:24:48;7.00;99.90
17827;DHT22;9038;48.208;16.308;2024-01-30T07:26:52;7.40;99.90
17827;DHT22;9038;48.208;16.308;2024-01-30T07:28:54;7.80;99.90
17827;DHT22;9038;48.208;16.308;2024-01-30T07:30:57;7.90;99.90
17827;DHT22;9038;48.208;16.308;2024-01-30T07:32:59;7.70;99.90
17827;DHT22;9038;48.208;16.308;2024-01-30T07:35:01;7.40;99.90
17827;DHT22;9038;48.208;16.308;2024-01-30T07:37:03;7.00;99.90
17827;DHT22;9038;48.208;16.308;2024-01-30T07:39:05;6.60;99.90
17827;DHT22;9038;48.208;16.308;2024-01-30T07:41:07;6.30;99.90
17827;DHT22;9038;48.208;16.308;2024-01-30T07:43:09;6.00;99.90
17827;DHT22;9038;48.208;16.308;2024-01-30T07:45:11;5.80;99.90
17827;DHT22;9038;48.208;16.308;2024-01-30T07:47:14;5.60;99.90
17827;DHT22;9038;48.208;16.308;2024-01-30T07:49:16;5.40;99.90
17827;DHT22;9038;48.208;16.308;2024-01-30T07:51:17;5.30;99.90
17827;DHT22;9038;48.208;16.308;2024-01-30T07:53:18;5.10;99.90
17827;DHT22;9038;48.208;16.308;2024-01-30T07:55:45;5.10;99.90
17827;DHT22;9038;48.208;16.308;2024-01-30T07:57:47;5.00;99.90
17827;DHT22;9038;48.208;16.308;2024-01-30T08:01:51;4.70;99.90
17827;DHT22;9038;48.208;16.308;2024-01-30T08:03:54;4.70;99.90
17827;DHT22;9038;48.208;16.308;2024-01-30T08:05:56;4.70;99.90
17827;DHT22;9038;48.208;16.308;2024-01-30T08:07:57;4.60;99.90
17827;DHT22;9038;48.208;16.308;2024-01-30T08:09:59;4.50;99.90
17827;DHT22;9038;48.208;16.308;2024-01-30T08:12:01;4.40;99.90
17827;DHT22;9038;48.208;16.308;2024-01-30T08:14:03;4.40;99.90
17827;DHT22;9038;48.208;16.308;2024-01-30T08:16:05;4.40;99.90
17827;DHT22;9038;48.208;16.308;2024-01-30T08:18:07;4.40;99.90
17827;DHT22;9038;48.208;16.308;2024-01-30T08:20:10;4.50;99.90
17827;DHT22;9038;48.208;16.308;2024-01-30T08:22:13;4.40;99.90
17827;DHT22;9038;48.208;16.308;2024-01-30T08:24:14;4.40;99.90
17827;DHT22;9038;48.208;16.308;2024-01-30T08:26:16;4.30;99.90
17827;DHT22;9038;48.208;16.308;2024-01-30T08:28:18;4.20;99.90
17827;DHT22;9038;48.208;16.308;2024-01-30T08:30:20;4.20;99.90
17827;DHT22;9038;48.208;16.308;2024-01-30T08:32:22;4.20;99.90
17827;DHT22;9038;48.208;16.308;2024-01-30T08:34:24;4.20;99.90
17827;DHT22;9038;48.208;16.308;2024-01-30T08:36:28;4.30;99.90
17827;DHT22;9038;48.208;16.308;2024-01-30T08:38:29;4.40;99.90
17827;DHT22;9038;48.208;16.308;2024-01-30T08:40:30;4.50;99.90
17827;DHT22;9038;48.208;16.308;2024-01-30T08:42:32;4.50;99.90
17827;DHT22;9038;48.208;16.308;2024-01-30T08:44:34;4.40;99.90
17827;DHT22;9038;48.208;16.308;2024-01-30T08:46:36;4.40;99.90
17827;DHT22;9038;48.208;16.308;2024-01-30T08:48:38;4.50;99.90
17827;DHT22;9038;48.208;16.308;2024-01-30T08:50:40;4.60;99.90
17827;DHT22;9038;48.208;16.308;2024-01-30T08:52:43;4.70;99.90
17827;DHT22;9038;48.208;16.308;2024-01-30T08:54:45;4.90;99.90
17827;DHT22;9038;48.208;16.308;2024-01-30T08:56:47;4.90;99.90
17827;DHT22;9038;48.208;16.308;2024-01-30T08:58:49;5.00;99.90
17827;DHT22;9038;48.208;16.308;2024-01-30T09:00:50;5.10;99.90
17827;DHT22;9038;48.208;16.308;2024-01-30T09:02:53;5.20;99.90
17827;DHT22;9038;48.208;16.308;2024-01-30T09:04:55;5.10;99.90
17827;DHT22;9038;48.208;16.308;2024-01-30T09:06:56;5.00;99.90
17827;DHT22;9038;48.208;16.308;2024-01-30T09:08:59;5.10;99.90
17827;DHT22;9038;48.208;16.308;2024-01-30T09:11:02;5.10;99.90
17827;DHT22;9038;48.208;16.308;2024-01-30T09:13:05;5.20;99.90
17827;DHT22;9038;48.208;16.308;2024-01-30T09:15:08;5.30;99.90
17827;DHT22;9038;48.208;16.308;2024-01-30T09:17:10;5.30;99.90
17827;DHT22;9038;48.208;16.308;2024-01-30T09:19:12;5.50;99.90
17827;DHT22;9038;48.208;16.308;2024-01-30T09:21:14;5.50;99.90
17827;DHT22;9038;48.208;16.308;2024-01-30T09:23:16;5.50;99.90
17827;DHT22;9038;48.208;16.308;2024-01-30T09:25:21;5.50;99.90
17827;DHT22;9038;48.208;16.308;2024-01-30T09:27:23;5.50;99.90
17827;DHT22;9038;48.208;16.308;2024-01-30T09:29:25;5.60;99.90
17827;DHT22;9038;48.208;16.308;2024-01-30T09:31:26;5.50;99.90
17827;DHT22;9038;48.208;16.308;2024-01-30T09:33:28;5.50;99.90
17827;DHT22;9038;48.208;16.308;2024-01-30T09:35:30;5.40;99.90
17827;DHT22;9038;48.208;16.308;2024-01-30T09:37:31;5.50;99.90
17827;DHT22;9038;48.208;16.308;2024-01-30T09:39:33;5.50;99.90
17827;DHT22;9038;48.208;16.308;2024-01-30T09:41:42;5.50;99.90
17827;DHT22;9038;48.208;16.308;2024-01-30T09:43:47;5.50;99.90
17827;DHT22;9038;48.208;16.308;2024-01-30T09:45:50;5.50;99.90
17827;DHT22;9038;48.208;16.308;2024-01-30T09:47:53;5.50;99.90
17827;DHT22;9038;48.208;16.308;2024-01-30T09:49:55;5.50;99.90
17827;DHT22;9038;48.208;16.308;2024-01-30T09:51:58;5.60;99.90
17827;DHT22;9038;48.208;16.308;2024-01-30T09:54:01;5.60;99.90
17827;DHT22;9038;48.208;16.308;2024-01-30T09:56:04;5.60;99.90
17827;DHT22;9038;48.208;16.308;2024-01-30T09:58:08;5.60;99.90
17827;DHT22;9038;48.208;16.308;2024-01-30T10:00:10;5.60;99.90
17827;DHT22;9038;48.208;16.308;2024-01-30T10:02:12;5.50;99.90
17827;DHT22;9038;48.208;16.308;2024-01-30T10:04:14;5.70;99.90
17827;DHT22;9038;48.208;16.308;2024-01-30T10:06:16;5.80;99.90
17827;DHT22;9038;48.208;16.308;2024-01-30T10:08:18;5.80;99.90
17827;DHT22;9038;48.208;16.308;2024-01-30T10:10:21;5.80;99.90
17827;DHT22;9038;48.208;16.308;2024-01-30T10:12:23;5.90;99.90
17827;DHT22;9038;48.208;16.308;2024-01-30T10:14:26;5.90;99.90
17827;DHT22;9038;48.208;16.308;2024-01-30T10:16:28;5.90;99.90
17827;DHT22;9038;48.208;16.308;2024-01-30T10:18:30;5.90;99.90
17827;DHT22;9038;48.208;16.308;2024-01-30T10:20:31;6.00;99.90
17827;DHT22;9038;48.208;16.308;2024-01-30T10:22:33;6.10;99.90
17827;DHT22;9038;48.208;16.308;2024-01-30T10:24:36;6.20;99.90
17827;DHT22;9038;48.208;16.308;2024-01-30T10:26:38;6.20;99.90
17827;DHT22;9038;48.208;16.308;2024-01-30T10:28:40;6.10;99.90
17827;DHT22;9038;48.208;16.308;2024-01-30T10:30:43;6.20;99.90
17827;DHT22;9038;48.208;16.308;2024-01-30T10:32:45;6.20;99.90
17827;DHT22;9038;48.208;16.308;2024-01-30T10:34:47;6.40;99.90
17827;DHT22;9038;48.208;16.308;2024-01-30T10:36:50;6.40;99.90
17827;DHT22;9038;48.208;16.308;2024-01-30T10:38:51;6.50;99.90
17827;DHT22;9038;48.208;16.308;2024-01-30T10:40:56;6.50;99.90
17827;DHT22;9038;48.208;16.308;2024-01-30T10:43:00;6.60;99.90
17827;DHT22;9038;48.208;16.308;2024-01-30T10:45:06;6.60;99.90
17827;DHT22;9038;48.208;16.308;2024-01-30T10:47:12;6.70;99.90
17827;DHT22;9038;48.208;16.308;2024-01-30T10:49:15;6.70;99.90
17827;DHT22;9038;48.208;16.308;2024-01-30T10:51:18;6.80;99.90
17827;DHT22;9038;48.208;16.308;2024-01-30T10:53:20;6.70;99.90
17827;DHT22;9038;48.208;16.308;2024-01-30T10:55:24;6.70;99.90
17827;DHT22;9038;48.208;16.308;2024-01-30T10:57:28;6.80;99.90
17827;DHT22;9038;48.208;16.308;2024-01-30T10:59:31;6.80;99.90
17827;DHT22;9038;48.208;16.308;2024-01-30T11:01:35;6.90;99.90
17827;DHT22;9038;48.208;16.308;2024-01-30T11:03:38;6.80;99.90
17827;DHT22;9038;48.208;16.308;2024-01-30T11:05:40;6.80;99.90
17827;DHT22;9038;48.208;16.308;2024-01-30T11:07:42;6.70;99.90
17827;DHT22;9038;48.208;16.308;2024-01-30T11:09:50;6.70;99.90
17827;DHT22;9038;48.208;16.308;2024-01-30T11:11:55;6.70;99.90
17827;DHT22;9038;48.208;16.308;2024-01-30T11:14:01;6.70;99.90
17827;DHT22;9038;48.208;16.308;2024-01-30T11:16:04;6.70;99.90
17827;DHT22;9038;48.208;16.308;2024-01-30T11:18:06;6.80;99.90
17827;DHT22;9038;48.208;16.308;2024-01-30T11:20:11;6.80;99.90
17827;DHT22;9038;48.208;16.308;2024-01-30T11:22:12;6.80;99.90
17827;DHT22;9038;48.208;16.308;2024-01-30T11:24:14;6.80;99.90
17827;DHT22;9038;48.208;16.308;2024-01-30T11:26:16;6.80;99.90
17827;DHT22;9038;48.208;16.308;2024-01-30T11:28:19;7.00;99.90
17827;DHT22;9038;48.208;16.308;2024-01-30T11:30:24;7.10;99.90
17827;DHT22;9038;48.208;16.308;2024-01-30T11:32:25;7.10;99.90
17827;DHT22;9038;48.208;16.308;2024-01-30T11:34:27;7.00;99.90
17827;DHT22;9038;48.208;16.308;2024-01-30T11:36:32;7.10;99.90
17827;DHT22;9038;48.208;16.308;2024-01-30T11:38:38;7.10;99.90
17827;DHT22;9038;48.208;16.308;2024-01-30T11:40:40;7.10;99.90
17827;DHT22;9038;48.208;16.308;2024-01-30T11:42:42;7.10;99.90
17827;DHT22;9038;48.208;16.308;2024-01-30T11:44:46;7.10;99.90
17827;DHT22;9038;48.208;16.308;2024-01-30T11:46:49;7.10;99.90
17827;DHT22;9038;48.208;16.308;2024-01-30T11:48:51;7.10;99.90
17827;DHT22;9038;48.208;16.308;2024-01-30T11:50:52;7.20;99.90
17827;DHT22;9038;48.208;16.308;2024-01-30T11:52:56;7.20;99.90
17827;DHT22;9038;48.208;16.308;2024-01-30T11:54:57;7.20;99.90
17827;DHT22;9038;48.208;16.308;2024-01-30T11:56:59;7.30;99.90
17827;DHT22;9038;48.208;16.308;2024-01-30T11:59:01;7.30;99.90
17827;DHT22;9038;48.208;16.308;2024-01-30T12:01:03;7.30;99.90
17827;DHT22;9038;48.208;16.308;2024-01-30T12:03:05;7.30;99.90
17827;DHT22;9038;48.208;16.308;2024-01-30T12:05:07;7.30;99.90
17827;DHT22;9038;48.208;16.308;2024-01-30T12:07:08;7.40;99.90
17827;DHT22;9038;48.208;16.308;2024-01-30T12:09:11;7.40;99.90
17827;DHT22;9038;48.208;16.308;2024-01-30T12:11:13;7.40;99.90
17827;DHT22;9038;48.208;16.308;2024-01-30T12:13:16;7.50;99.90
17827;DHT22;9038;48.208;16.308;2024-01-30T12:15:19;7.50;99.90
17827;DHT22;9038;48.208;16.308;2024-01-30T12:17:28;7.50;99.90
17827;DHT22;9038;48.208;16.308;2024-01-30T12:19:30;7.50;99.90
17827;DHT22;9038;48.208;16.308;2024-01-30T12:21:33;7.40;99.90
17827;DHT22;9038;48.208;16.308;2024-01-30T12:23:35;7.50;99.90
17827;DHT22;9038;48.208;16.308;2024-01-30T12:25:38;7.40;99.90
17827;DHT22;9038;48.208;16.308;2024-01-30T12:27:42;7.40;99.90
17827;DHT22;9038;48.208;16.308;2024-01-30T12:29:44;7.30;99.90
17827;DHT22;9038;48.208;16.308;2024-01-30T12:31:46;7.30;99.90
17827;DHT22;9038;48.208;16.308;2024-01-30T12:33:49;7.20;99.90
17827;DHT22;9038;48.208;16.308;2024-01-30T12:35:51;7.30;99.90
17827;DHT22;9038;48.208;16.308;2024-01-30T12:37:53;7.30;99.90
17827;DHT22;9038;48.208;16.308;2024-01-30T12:39:55;7.30;99.90
17827;DHT22;9038;48.208;16.308;2024-01-30T12:41:57;7.30;99.90
17827;DHT22;9038;48.208;16.308;2024-01-30T12:43:59;7.20;99.90
17827;DHT22;9038;48.208;16.308;2024-01-30T12:46:01;7.30;99.90
17827;DHT22;9038;48.208;16.308;2024-01-30T12:48:03;7.40;99.90
17827;DHT22;9038;48.208;16.308;2024-01-30T12:50:06;7.40;99.90
17827;DHT22;9038;48.208;16.308;2024-01-30T12:52:08;7.40;99.90
17827;DHT22;9038;48.208;16.308;2024-01-30T12:54:10;7.50;99.90
17827;DHT22;9038;48.208;16.308;2024-01-30T12:56:14;7.50;99.90
17827;DHT22;9038;48.208;16.308;2024-01-30T12:58:17;7.40;99.90
17827;DHT22;9038;48.208;16.308;2024-01-30T13:00:19;7.40;99.90
17827;DHT22;9038;48.208;16.308;2024-01-30T13:02:21;7.50;99.90
17827;DHT22;9038;48.208;16.308;2024-01-30T13:04:24;7.50;99.90
17827;DHT22;9038;48.208;16.308;2024-01-30T13:06:25;7.60;99.90